Porter, Oklahoma
Current Conditions -  °F | °C
As of 4:53 PM on Thursday 23 Oct 2014 (Local Time) from KMKO Reporting Station
Overcast Overcast  
Wind Chill: 63°   Ceiling: 6000
Heat Index: 63°   Visibility: 10mi
Dew Point: 55°   Wind: 7mph
Humidity: 75%   Direction: 130°SE
Pressure: 30.12"   Gusts: NA
Location:  35.87°N, 95.52°W
Report Text: KMKO 232153Z AUTO 13006KT 10SM OVC060 17/13 A3012 RMK AO2 SLP196 T01720128
Loading
Personal Weather Stations






























Interactive Weather Map
Tropical Storm Tracking
New forecast layout! Learn more

10-Day Weather Forecast

Advertisements
Track Severe Weather on mobile